sensor_id;sensor_type;location;lat;lon;timestamp;pressure;altitude;pressure_sealevel;temperature;humidity
58245;BME280;44550;43.864;25.986;2023-04-28T00:03:16;101426.63;;;9.63;73.05
58245;BME280;44550;43.864;25.986;2023-04-28T00:07:46;101419.47;;;9.56;72.14
58245;BME280;44550;43.864;25.986;2023-04-28T00:17:48;101432.41;;;9.50;71.16
58245;BME280;44550;43.864;25.986;2023-04-28T00:22:37;101440.22;;;9.50;70.35
58245;BME280;44550;43.864;25.986;2023-04-28T00:26:56;101443.47;;;9.38;69.96
58245;BME280;44550;43.864;25.986;2023-04-28T00:31:40;101448.69;;;9.40;69.81
58245;BME280;44550;43.864;25.986;2023-04-28T00:36:07;101447.66;;;9.32;69.35
58245;BME280;44550;43.864;25.986;2023-04-28T00:40:43;101461.81;;;9.43;69.10
58245;BME280;44550;43.864;25.986;2023-04-28T00:45:11;101462.38;;;9.30;69.41
58245;BME280;44550;43.864;25.986;2023-04-28T00:50:03;101456.91;;;9.19;70.20
58245;BME280;44550;43.864;25.986;2023-04-28T00:54:28;101459.22;;;9.07;71.58
58245;BME280;44550;43.864;25.986;2023-04-28T01:03:24;101463.22;;;8.92;73.17
58245;BME280;44550;43.864;25.986;2023-04-28T01:07:47;101465.88;;;8.94;74.46
58245;BME280;44550;43.864;25.986;2023-04-28T01:12:25;101468.53;;;8.96;75.22
58245;BME280;44550;43.864;25.986;2023-04-28T01:17:01;101466.00;;;8.99;73.97
58245;BME280;44550;43.864;25.986;2023-04-28T01:21:09;101464.00;;;8.88;74.22
58245;BME280;44550;43.864;25.986;2023-04-28T01:25:16;101467.56;;;8.92;75.52
58245;BME280;44550;43.864;25.986;2023-04-28T01:29:25;101460.44;;;8.85;76.27
58245;BME280;44550;43.864;25.986;2023-04-28T01:33:32;101462.88;;;8.79;75.68
58245;BME280;44550;43.864;25.986;2023-04-28T01:37:39;101470.81;;;8.83;76.13
58245;BME280;44550;43.864;25.986;2023-04-28T01:46:35;101474.06;;;9.09;73.68
58245;BME280;44550;43.864;25.986;2023-04-28T01:50:55;101472.81;;;9.28;73.27
58245;BME280;44550;43.864;25.986;2023-04-28T01:54:59;101474.63;;;9.32;72.52
58245;BME280;44550;43.864;25.986;2023-04-28T01:59:13;101473.13;;;9.42;73.18
58245;BME280;44550;43.864;25.986;2023-04-28T02:03:18;101473.56;;;9.60;73.03
58245;BME280;44550;43.864;25.986;2023-04-28T02:07:21;101476.19;;;9.62;72.94
58245;BME280;44550;43.864;25.986;2023-04-28T02:11:23;101479.00;;;9.33;74.33
58245;BME280;44550;43.864;25.986;2023-04-28T02:15:32;101475.50;;;9.33;74.68
58245;BME280;44550;43.864;25.986;2023-04-28T02:19:42;101479.78;;;9.29;74.20
58245;BME280;44550;43.864;25.986;2023-04-28T02:23:50;101479.78;;;9.29;74.60
58245;BME280;44550;43.864;25.986;2023-04-28T02:27:56;101478.81;;;9.26;75.91
58245;BME280;44550;43.864;25.986;2023-04-28T02:32:06;101476.59;;;9.43;75.37
58245;BME280;44550;43.864;25.986;2023-04-28T02:36:19;101477.00;;;9.59;74.02
58245;BME280;44550;43.864;25.986;2023-04-28T02:40:20;101487.50;;;9.62;74.49
58245;BME280;44550;43.864;25.986;2023-04-28T02:44:21;101495.13;;;9.53;76.44
58245;BME280;44550;43.864;25.986;2023-04-28T02:48:26;101492.63;;;9.58;75.92
58245;BME280;44550;43.864;25.986;2023-04-28T02:52:34;101493.81;;;9.72;75.78
58245;BME280;44550;43.864;25.986;2023-04-28T02:56:38;101507.72;;;9.71;75.44
58245;BME280;44550;43.864;25.986;2023-04-28T03:00:42;101512.97;;;9.73;75.28
58245;BME280;44550;43.864;25.986;2023-04-28T03:04:43;101515.00;;;9.86;74.78
58245;BME280;44550;43.864;25.986;2023-04-28T03:08:46;101519.38;;;9.48;78.55
58245;BME280;44550;43.864;25.986;2023-04-28T03:12:49;101533.16;;;9.42;78.97
58245;BME280;44550;43.864;25.986;2023-04-28T03:17:01;101527.22;;;9.48;79.42
58245;BME280;44550;43.864;25.986;2023-04-28T03:21:01;101538.56;;;9.50;78.91
58245;BME280;44550;43.864;25.986;2023-04-28T03:25:11;101540.59;;;9.63;78.96
58245;BME280;44550;43.864;25.986;2023-04-28T03:29:14;101548.13;;;9.49;79.31
58245;BME280;44550;43.864;25.986;2023-04-28T03:33:24;101554.91;;;9.43;79.17
58245;BME280;44550;43.864;25.986;2023-04-28T03:37:25;101553.34;;;9.14;82.23
58245;BME280;44550;43.864;25.986;2023-04-28T03:41:32;101564.56;;;8.79;84.67
58245;BME280;44550;43.864;25.986;2023-04-28T03:45:36;101565.75;;;8.90;84.97
58245;BME280;44550;43.864;25.986;2023-04-28T03:49:36;101573.53;;;8.88;84.86
58245;BME280;44550;43.864;25.986;2023-04-28T03:53:36;101586.13;;;8.72;87.08
58245;BME280;44550;43.864;25.986;2023-04-28T03:57:39;101591.00;;;8.91;87.50
58245;BME280;44550;43.864;25.986;2023-04-28T04:01:39;101589.78;;;9.45;85.86
58245;BME280;44550;43.864;25.986;2023-04-28T04:05:39;101590.38;;;9.69;85.20
58245;BME280;44550;43.864;25.986;2023-04-28T04:09:40;101587.66;;;10.01;84.37
58245;BME280;44550;43.864;25.986;2023-04-28T04:13:42;101603.78;;;10.21;84.78
58245;BME280;44550;43.864;25.986;2023-04-28T04:17:43;101597.41;;;10.47;82.84
58245;BME280;44550;43.864;25.986;2023-04-28T04:21:43;101601.63;;;10.42;82.56
58245;BME280;44550;43.864;25.986;2023-04-28T04:25:45;101601.16;;;10.60;79.85
58245;BME280;44550;43.864;25.986;2023-04-28T04:29:50;101605.06;;;10.40;80.51
58245;BME280;44550;43.864;25.986;2023-04-28T04:33:49;101613.03;;;10.46;77.67
58245;BME280;44550;43.864;25.986;2023-04-28T04:37:56;101619.53;;;10.25;79.45
58245;BME280;44550;43.864;25.986;2023-04-28T04:41:56;101624.00;;;10.28;79.56
58245;BME280;44550;43.864;25.986;2023-04-28T04:46:13;101622.00;;;10.19;79.42
58245;BME280;44550;43.864;25.986;2023-04-28T04:50:19;101629.88;;;10.58;77.19
58245;BME280;44550;43.864;25.986;2023-04-28T04:54:19;101636.47;;;10.41;76.29
58245;BME280;44550;43.864;25.986;2023-04-28T05:03:02;101638.91;;;10.73;78.92
58245;BME280;44550;43.864;25.986;2023-04-28T05:07:08;101651.59;;;10.54;81.52
58245;BME280;44550;43.864;25.986;2023-04-28T05:11:09;101650.78;;;10.58;81.00
58245;BME280;44550;43.864;25.986;2023-04-28T05:15:10;101656.03;;;10.99;76.78
58245;BME280;44550;43.864;25.986;2023-04-28T05:19:17;101654.69;;;11.21;76.97
58245;BME280;44550;43.864;25.986;2023-04-28T05:23:19;101658.97;;;11.18;75.96
58245;BME280;44550;43.864;25.986;2023-04-28T05:27:29;101658.03;;;11.13;73.75
58245;BME280;44550;43.864;25.986;2023-04-28T05:31:30;101667.91;;;11.29;74.85
58245;BME280;44550;43.864;25.986;2023-04-28T05:35:33;101671.75;;;11.02;76.91
58245;BME280;44550;43.864;25.986;2023-04-28T05:39:35;101672.56;;;11.44;75.64
58245;BME280;44550;43.864;25.986;2023-04-28T05:43:44;101672.25;;;11.28;77.49
58245;BME280;44550;43.864;25.986;2023-04-28T05:47:48;101672.44;;;12.42;68.54
58245;BME280;44550;43.864;25.986;2023-04-28T05:51:57;101682.69;;;12.89;65.26
58245;BME280;44550;43.864;25.986;2023-04-28T05:55:59;101681.97;;;13.86;63.43
58245;BME280;44550;43.864;25.986;2023-04-28T06:00:13;101695.44;;;12.04;66.05
58245;BME280;44550;43.864;25.986;2023-04-28T06:04:24;101701.09;;;12.30;66.18
58245;BME280;44550;43.864;25.986;2023-04-28T06:08:31;101702.31;;;12.52;65.09
58245;BME280;44550;43.864;25.986;2023-04-28T06:12:39;101708.06;;;12.89;64.45
58245;BME280;44550;43.864;25.986;2023-04-28T06:16:48;101712.72;;;13.13;64.88
58245;BME280;44550;43.864;25.986;2023-04-28T06:25:16;101706.78;;;12.59;65.49
58245;BME280;44550;43.864;25.986;2023-04-28T06:33:43;101710.94;;;13.09;57.55
58245;BME280;44550;43.864;25.986;2023-04-28T06:37:56;101716.28;;;13.18;58.51
58245;BME280;44550;43.864;25.986;2023-04-28T06:42:09;101711.66;;;13.75;54.37
58245;BME280;44550;43.864;25.986;2023-04-28T06:46:12;101712.47;;;13.69;53.99
58245;BME280;44550;43.864;25.986;2023-04-28T06:50:23;101708.88;;;13.58;54.02
58245;BME280;44550;43.864;25.986;2023-04-28T06:54:34;101708.16;;;13.76;53.34
58245;BME280;44550;43.864;25.986;2023-04-28T06:58:40;101712.31;;;13.54;54.20
58245;BME280;44550;43.864;25.986;2023-04-28T07:02:40;101705.38;;;14.72;51.89
58245;BME280;44550;43.864;25.986;2023-04-28T07:06:41;101702.72;;;14.69;47.95
58245;BME280;44550;43.864;25.986;2023-04-28T07:10:42;101697.72;;;15.33;47.03
58245;BME280;44550;43.864;25.986;2023-04-28T07:19:12;101705.31;;;14.61;45.09
58245;BME280;44550;43.864;25.986;2023-04-28T07:23:15;101713.78;;;14.20;44.68
58245;BME280;44550;43.864;25.986;2023-04-28T07:27:17;101711.16;;;14.23;43.74
58245;BME280;44550;43.864;25.986;2023-04-28T07:31:20;101715.63;;;14.30;44.45
58245;BME280;44550;43.864;25.986;2023-04-28T07:35:25;101705.22;;;14.49;45.81
58245;BME280;44550;43.864;25.986;2023-04-28T07:39:27;101706.19;;;14.63;44.88
58245;BME280;44550;43.864;25.986;2023-04-28T07:43:29;101699.75;;;14.20;44.87
58245;BME280;44550;43.864;25.986;2023-04-28T07:47:30;101699.69;;;14.07;42.37
58245;BME280;44550;43.864;25.986;2023-04-28T07:51:32;101698.88;;;14.19;42.08
58245;BME280;44550;43.864;25.986;2023-04-28T07:55:35;101700.59;;;14.16;39.34
58245;BME280;44550;43.864;25.986;2023-04-28T07:59:38;101694.69;;;14.47;43.95
58245;BME280;44550;43.864;25.986;2023-04-28T08:03:39;101689.69;;;14.96;42.53
58245;BME280;44550;43.864;25.986;2023-04-28T08:07:43;101701.94;;;14.90;40.62
58245;BME280;44550;43.864;25.986;2023-04-28T08:11:47;101695.06;;;15.27;38.63
58245;BME280;44550;43.864;25.986;2023-04-28T08:15:52;101692.38;;;15.04;40.83
58245;BME280;44550;43.864;25.986;2023-04-28T08:20:05;101688.72;;;14.79;42.49
58245;BME280;44550;43.864;25.986;2023-04-28T08:24:20;101685.13;;;14.63;38.98
58245;BME280;44550;43.864;25.986;2023-04-28T08:28:21;101673.91;;;15.01;38.61
58245;BME280;44550;43.864;25.986;2023-04-28T08:32:31;101683.63;;;15.20;37.63
58245;BME280;44550;43.864;25.986;2023-04-28T08:41:10;101673.00;;;14.91;38.97
58245;BME280;44550;43.864;25.986;2023-04-28T08:45:24;101667.81;;;15.30;36.42
58245;BME280;44550;43.864;25.986;2023-04-28T08:49:34;101660.00;;;15.60;34.52
58245;BME280;44550;43.864;25.986;2023-04-28T08:54:03;101651.13;;;15.23;36.36
58245;BME280;44550;43.864;25.986;2023-04-28T08:58:37;101650.16;;;14.89;37.81
58245;BME280;44550;43.864;25.986;2023-04-28T09:02:51;101647.56;;;14.99;38.04
58245;BME280;44550;43.864;25.986;2023-04-28T09:07:02;101646.59;;;14.76;37.10
58245;BME280;44550;43.864;25.986;2023-04-28T09:11:05;101643.13;;;14.85;38.14
58245;BME280;44550;43.864;25.986;2023-04-28T09:15:11;101637.94;;;15.12;37.43
58245;BME280;44550;43.864;25.986;2023-04-28T09:19:27;101634.31;;;14.76;35.38
58245;BME280;44550;43.864;25.986;2023-04-28T09:23:33;101635.34;;;15.34;35.12
58245;BME280;44550;43.864;25.986;2023-04-28T09:27:37;101625.69;;;15.37;32.61
58245;BME280;44550;43.864;25.986;2023-04-28T09:31:46;101631.81;;;15.24;34.43
58245;BME280;44550;43.864;25.986;2023-04-28T09:35:58;101630.13;;;15.69;34.43
58245;BME280;44550;43.864;25.986;2023-04-28T09:40:04;101618.72;;;15.76;31.74
58245;BME280;44550;43.864;25.986;2023-04-28T09:44:13;101611.69;;;15.73;33.97
58245;BME280;44550;43.864;25.986;2023-04-28T09:48:16;101618.72;;;15.68;35.16
58245;BME280;44550;43.864;25.986;2023-04-28T09:52:29;101618.72;;;15.70;35.28
58245;BME280;44550;43.864;25.986;2023-04-28T09:56:30;101615.19;;;15.80;33.31
58245;BME280;44550;43.864;25.986;2023-04-28T10:00:36;101603.75;;;15.81;34.15
58245;BME280;44550;43.864;25.986;2023-04-28T10:04:48;101612.53;;;16.06;34.02
58245;BME280;44550;43.864;25.986;2023-04-28T10:08:51;101601.09;;;15.50;34.39
58245;BME280;44550;43.864;25.986;2023-04-28T10:12:56;101595.81;;;15.55;35.88
58245;BME280;44550;43.864;25.986;2023-04-28T10:17:04;101593.13;;;15.09;36.20
58245;BME280;44550;43.864;25.986;2023-04-28T10:21:13;101595.78;;;15.23;37.35
58245;BME280;44550;43.864;25.986;2023-04-28T10:25:24;101594.94;;;15.58;36.09
58245;BME280;44550;43.864;25.986;2023-04-28T10:29:26;101591.44;;;15.37;35.48
58245;BME280;44550;43.864;25.986;2023-04-28T10:33:27;101591.44;;;15.43;35.68
58245;BME280;44550;43.864;25.986;2023-04-28T10:41:45;101593.22;;;15.80;36.73
58245;BME280;44550;43.864;25.986;2023-04-28T10:46:02;101594.09;;;15.71;35.53
58245;BME280;44550;43.864;25.986;2023-04-28T10:50:13;101581.81;;;15.70;35.23
58245;BME280;44550;43.864;25.986;2023-04-28T10:54:35;101583.53;;;15.37;36.73
58245;BME280;44550;43.864;25.986;2023-04-28T10:58:40;101578.28;;;15.71;35.54
58245;BME280;44550;43.864;25.986;2023-04-28T11:02:57;101571.25;;;15.84;35.60
58245;BME280;44550;43.864;25.986;2023-04-28T11:07:09;101578.25;;;16.00;35.36
58245;BME280;44550;43.864;25.986;2023-04-28T11:11:21;101564.03;;;16.38;35.02
58245;BME280;44550;43.864;25.986;2023-04-28T11:15:43;101563.22;;;16.20;37.11
58245;BME280;44550;43.864;25.986;2023-04-28T11:20:02;101566.84;;;15.54;35.98
58245;BME280;44550;43.864;25.986;2023-04-28T11:24:09;101565.97;;;15.71;36.83
58245;BME280;44550;43.864;25.986;2023-04-28T11:28:16;101567.75;;;15.69;37.98
58245;BME280;44550;43.864;25.986;2023-04-28T11:32:25;101564.19;;;15.49;37.05
58245;BME280;44550;43.864;25.986;2023-04-28T11:36:33;101560.69;;;15.50;38.11
58245;BME280;44550;43.864;25.986;2023-04-28T11:45:00;101549.25;;;15.85;36.73
58245;BME280;44550;43.864;25.986;2023-04-28T11:49:07;101551.88;;;15.30;38.01
58245;BME280;44550;43.864;25.986;2023-04-28T11:53:08;101551.03;;;15.73;37.99
58245;BME280;44550;43.864;25.986;2023-04-28T11:57:15;101536.97;;;15.47;37.15
58245;BME280;44550;43.864;25.986;2023-04-28T12:01:19;101542.22;;;15.88;36.39
58245;BME280;44550;43.864;25.986;2023-04-28T12:05:22;101543.09;;;15.78;37.79
58245;BME280;44550;43.864;25.986;2023-04-28T12:09:25;101528.13;;;15.95;37.83
58245;BME280;44550;43.864;25.986;2023-04-28T12:13:41;101524.59;;;15.98;38.16
58245;BME280;44550;43.864;25.986;2023-04-28T12:17:49;101522.75;;;16.26;38.39
58245;BME280;44550;43.864;25.986;2023-04-28T12:22:02;101505.94;;;16.45;35.45
58245;BME280;44550;43.864;25.986;2023-04-28T12:26:09;101501.25;;;16.97;35.68
58245;BME280;44550;43.864;25.986;2023-04-28T12:34:32;101494.41;;;16.60;36.57
58245;BME280;44550;43.864;25.986;2023-04-28T12:38:48;101480.31;;;16.64;38.04
58245;BME280;44550;43.864;25.986;2023-04-28T12:42:51;101473.03;;;17.00;37.96
58245;BME280;44550;43.864;25.986;2023-04-28T12:47:02;101472.25;;;16.92;38.38
58245;BME280;44550;43.864;25.986;2023-04-28T12:51:15;101463.19;;;17.18;35.60
58245;BME280;44550;43.864;25.986;2023-04-28T12:55:31;101464.31;;;16.90;34.99
58245;BME280;44550;43.864;25.986;2023-04-28T12:59:37;101469.91;;;16.35;36.61
58245;BME280;44550;43.864;25.986;2023-04-28T13:03:52;101470.06;;;16.06;38.07
58245;BME280;44550;43.864;25.986;2023-04-28T13:08:14;101467.50;;;15.79;37.96
58245;BME280;44550;43.864;25.986;2023-04-28T13:12:20;101454.91;;;16.47;36.87
58245;BME280;44550;43.864;25.986;2023-04-28T13:16:22;101448.75;;;16.44;37.35
58245;BME280;44550;43.864;25.986;2023-04-28T13:20:29;101447.69;;;16.72;37.34
58245;BME280;44550;43.864;25.986;2023-04-28T13:24:31;101446.81;;;16.77;36.16
58245;BME280;44550;43.864;25.986;2023-04-28T13:28:37;101442.25;;;16.95;36.41
58245;BME280;44550;43.864;25.986;2023-04-28T13:32:46;101439.59;;;16.95;35.03
58245;BME280;44550;43.864;25.986;2023-04-28T13:36:59;101442.91;;;17.21;35.44
58245;BME280;44550;43.864;25.986;2023-04-28T13:41:02;101429.03;;;16.95;36.02
58245;BME280;44550;43.864;25.986;2023-04-28T13:45:10;101416.44;;;17.26;36.82
58245;BME280;44550;43.864;25.986;2023-04-28T13:49:14;101427.88;;;17.26;37.26
58245;BME280;44550;43.864;25.986;2023-04-28T13:53:18;101419.72;;;17.48;35.45
58245;BME280;44550;43.864;25.986;2023-04-28T13:57:22;101411.97;;;17.31;36.17
58245;BME280;44550;43.864;25.986;2023-04-28T14:01:26;101420.09;;;17.12;35.24
58245;BME280;44550;43.864;25.986;2023-04-28T14:05:28;101388.59;;;16.89;35.30
58245;BME280;44550;43.864;25.986;2023-04-28T14:09:45;101417.50;;;17.06;36.05
58245;BME280;44550;43.864;25.986;2023-04-28T14:13:49;101421.13;;;16.95;35.50
58245;BME280;44550;43.864;25.986;2023-04-28T14:17:55;101411.56;;;16.78;36.72
58245;BME280;44550;43.864;25.986;2023-04-28T14:21:59;101417.94;;;16.45;36.72
58245;BME280;44550;43.864;25.986;2023-04-28T14:26:02;101417.00;;;16.54;36.40
58245;BME280;44550;43.864;25.986;2023-04-28T14:30:05;101408.22;;;16.52;36.65
58245;BME280;44550;43.864;25.986;2023-04-28T14:34:10;101413.47;;;16.59;37.57
58245;BME280;44550;43.864;25.986;2023-04-28T14:38:15;101394.81;;;16.85;35.94
58245;BME280;44550;43.864;25.986;2023-04-28T14:42:17;101392.03;;;16.98;36.99
58245;BME280;44550;43.864;25.986;2023-04-28T14:46:20;101393.81;;;16.97;36.47
58245;BME280;44550;43.864;25.986;2023-04-28T14:50:23;101385.69;;;17.19;36.30
58245;BME280;44550;43.864;25.986;2023-04-28T14:54:30;101395.00;;;17.55;36.14
58245;BME280;44550;43.864;25.986;2023-04-28T14:58:36;101386.06;;;17.65;35.75
58245;BME280;44550;43.864;25.986;2023-04-28T15:02:43;101384.25;;;17.67;35.68
58245;BME280;44550;43.864;25.986;2023-04-28T15:07:01;101386.88;;;17.67;35.58
58245;BME280;44550;43.864;25.986;2023-04-28T15:11:02;101380.75;;;17.65;36.30
58245;BME280;44550;43.864;25.986;2023-04-28T15:15:15;101385.97;;;17.70;36.15
58245;BME280;44550;43.864;25.986;2023-04-28T15:19:30;101381.88;;;17.46;36.47
58245;BME280;44550;43.864;25.986;2023-04-28T15:23:38;101377.97;;;17.79;35.80
58245;BME280;44550;43.864;25.986;2023-04-28T15:27:44;101377.97;;;17.76;35.02
58245;BME280;44550;43.864;25.986;2023-04-28T15:31:52;101383.00;;;17.99;34.21
58245;BME280;44550;43.864;25.986;2023-04-28T15:36:22;101373.28;;;17.98;34.18
58245;BME280;44550;43.864;25.986;2023-04-28T15:40:43;101377.09;;;17.74;34.84
58245;BME280;44550;43.864;25.986;2023-04-28T15:44:53;101371.66;;;17.88;34.06
58245;BME280;44550;43.864;25.986;2023-04-28T15:49:07;101365.75;;;17.64;34.18
58245;BME280;44550;43.864;25.986;2023-04-28T15:53:48;101362.69;;;17.99;34.35
58245;BME280;44550;43.864;25.986;2023-04-28T15:58:12;101349.41;;;18.04;34.81
58245;BME280;44550;43.864;25.986;2023-04-28T16:02:23;101357.84;;;17.66;34.82
58245;BME280;44550;43.864;25.986;2023-04-28T16:06:25;101349.13;;;17.54;35.47
58245;BME280;44550;43.864;25.986;2023-04-28T16:10:32;101340.41;;;17.49;35.49
58245;BME280;44550;43.864;25.986;2023-04-28T16:14:35;101349.44;;;17.30;35.63
58245;BME280;44550;43.864;25.986;2023-04-28T16:18:36;101343.91;;;17.50;35.80
58245;BME280;44550;43.864;25.986;2023-04-28T16:27:01;101340.22;;;17.63;34.78
58245;BME280;44550;43.864;25.986;2023-04-28T16:36:27;101326.88;;;17.72;34.77
58245;BME280;44550;43.864;25.986;2023-04-28T16:40:32;101342.00;;;17.61;35.52
58245;BME280;44550;43.864;25.986;2023-04-28T16:44:36;101350.03;;;17.55;36.01
58245;BME280;44550;43.864;25.986;2023-04-28T16:48:41;101350.88;;;17.58;36.41
58245;BME280;44550;43.864;25.986;2023-04-28T16:52:47;101341.19;;;17.54;36.32
58245;BME280;44550;43.864;25.986;2023-04-28T16:56:48;101348.03;;;17.71;36.11
58245;BME280;44550;43.864;25.986;2023-04-28T17:00:50;101339.38;;;17.58;35.91
58245;BME280;44550;43.864;25.986;2023-04-28T17:04:50;101349.19;;;17.50;35.87
58245;BME280;44550;43.864;25.986;2023-04-28T17:08:56;101348.25;;;17.54;36.62
58245;BME280;44550;43.864;25.986;2023-04-28T17:13:07;101351.16;;;17.35;36.26
58245;BME280;44550;43.864;25.986;2023-04-28T17:17:32;101348.72;;;17.14;36.92
58245;BME280;44550;43.864;25.986;2023-04-28T17:21:41;101347.03;;;17.07;36.68
58245;BME280;44550;43.864;25.986;2023-04-28T17:26:01;101355.13;;;16.90;37.08
58245;BME280;44550;43.864;25.986;2023-04-28T17:30:43;101360.50;;;16.78;37.25
58245;BME280;44550;43.864;25.986;2023-04-28T17:35:30;101363.19;;;16.76;37.58
58245;BME280;44550;43.864;25.986;2023-04-28T17:39:59;101363.22;;;16.67;37.47
58245;BME280;44550;43.864;25.986;2023-04-28T17:44:28;101364.25;;;16.49;38.29
58245;BME280;44550;43.864;25.986;2023-04-28T17:48:30;101372.28;;;16.31;37.82
58245;BME280;44550;43.864;25.986;2023-04-28T17:52:35;101378.59;;;16.10;38.64
58245;BME280;44550;43.864;25.986;2023-04-28T17:56:40;101384.81;;;15.96;38.78
58245;BME280;44550;43.864;25.986;2023-04-28T18:00:43;101387.56;;;15.67;39.30
58245;BME280;44550;43.864;25.986;2023-04-28T18:04:44;101395.53;;;15.47;40.33
58245;BME280;44550;43.864;25.986;2023-04-28T18:08:58;101389.41;;;15.35;40.82
58245;BME280;44550;43.864;25.986;2023-04-28T18:13:02;101388.53;;;15.31;40.99
58245;BME280;44550;43.864;25.986;2023-04-28T18:17:07;101384.16;;;15.24;41.35
58245;BME280;44550;43.864;25.986;2023-04-28T18:21:08;101383.28;;;15.19;41.50
58245;BME280;44550;43.864;25.986;2023-04-28T18:25:09;101389.44;;;15.16;42.04
58245;BME280;44550;43.864;25.986;2023-04-28T18:29:19;101391.19;;;15.19;42.76
58245;BME280;44550;43.864;25.986;2023-04-28T18:33:28;101386.81;;;15.21;42.47
58245;BME280;44550;43.864;25.986;2023-04-28T18:37:28;101386.81;;;15.15;42.94
58245;BME280;44550;43.864;25.986;2023-04-28T18:41:43;101396.50;;;15.03;42.95
58245;BME280;44550;43.864;25.986;2023-04-28T18:45:46;101391.22;;;14.90;43.47
58245;BME280;44550;43.864;25.986;2023-04-28T18:49:51;101396.50;;;14.85;43.67
58245;BME280;44550;43.864;25.986;2023-04-28T18:53:53;101396.50;;;14.79;44.59
58245;BME280;44550;43.864;25.986;2023-04-28T18:57:57;101394.72;;;14.76;45.06
58245;BME280;44550;43.864;25.986;2023-04-28T19:01:58;101402.63;;;14.72;45.00
58245;BME280;44550;43.864;25.986;2023-04-28T19:06:07;101396.50;;;14.57;45.40
58245;BME280;44550;43.864;25.986;2023-04-28T19:10:09;101396.44;;;14.45;45.56
58245;BME280;44550;43.864;25.986;2023-04-28T19:14:13;101399.06;;;14.38;45.44
58245;BME280;44550;43.864;25.986;2023-04-28T19:18:17;101397.31;;;14.27;45.83
58245;BME280;44550;43.864;25.986;2023-04-28T19:22:33;101397.25;;;14.14;46.43
58245;BME280;44550;43.864;25.986;2023-04-28T19:26:39;101394.63;;;14.07;46.97
58245;BME280;44550;43.864;25.986;2023-04-28T19:30:40;101405.13;;;14.12;47.71
58245;BME280;44550;43.864;25.986;2023-04-28T19:34:47;101392.00;;;14.10;47.97
58245;BME280;44550;43.864;25.986;2023-04-28T19:39:02;101393.72;;;13.98;48.40
58245;BME280;44550;43.864;25.986;2023-04-28T19:43:15;101389.25;;;13.80;49.16
58245;BME280;44550;43.864;25.986;2023-04-28T19:47:31;101395.38;;;13.79;49.62
58245;BME280;44550;43.864;25.986;2023-04-28T19:51:34;101396.22;;;13.70;49.96
58245;BME280;44550;43.864;25.986;2023-04-28T19:55:43;101388.28;;;13.58;50.14
58245;BME280;44550;43.864;25.986;2023-04-28T19:59:51;101385.63;;;13.56;50.62
58245;BME280;44550;43.864;25.986;2023-04-28T20:04:03;101385.69;;;13.61;50.75
58245;BME280;44550;43.864;25.986;2023-04-28T20:08:10;101389.13;;;13.49;50.87
58245;BME280;44550;43.864;25.986;2023-04-28T20:12:14;101389.00;;;13.25;51.79
58245;BME280;44550;43.864;25.986;2023-04-28T20:16:18;101388.84;;;13.14;52.37
58245;BME280;44550;43.864;25.986;2023-04-28T20:20:24;101381.88;;;13.14;52.33
58245;BME280;44550;43.864;25.986;2023-04-28T20:24:49;101395.84;;;13.09;52.94
58245;BME280;44550;43.864;25.986;2023-04-28T20:28:57;101386.16;;;12.99;54.49
58245;BME280;44550;43.864;25.986;2023-04-28T20:33:00;101387.91;;;13.03;55.11
58245;BME280;44550;43.864;25.986;2023-04-28T20:37:06;101385.19;;;12.89;56.72
58245;BME280;44550;43.864;25.986;2023-04-28T20:41:08;101382.41;;;12.70;58.08
58245;BME280;44550;43.864;25.986;2023-04-28T20:45:12;101382.31;;;12.61;57.92
58245;BME280;44550;43.864;25.986;2023-04-28T20:49:22;101377.97;;;12.59;58.56
58245;BME280;44550;43.864;25.986;2023-04-28T20:53:35;101383.97;;;12.47;58.14
58245;BME280;44550;43.864;25.986;2023-04-28T20:57:39;101383.09;;;12.46;58.76
58245;BME280;44550;43.864;25.986;2023-04-28T21:01:57;101377.75;;;12.36;59.72
58245;BME280;44550;43.864;25.986;2023-04-28T21:06:03;101373.94;;;12.08;61.91
58245;BME280;44550;43.864;25.986;2023-04-28T21:10:06;101378.09;;;11.87;62.91
58245;BME280;44550;43.864;25.986;2023-04-28T21:14:08;101375.63;;;11.34;65.51
58245;BME280;44550;43.864;25.986;2023-04-28T21:18:16;101375.28;;;11.11;65.88
58245;BME280;44550;43.864;25.986;2023-04-28T21:22:23;101389.25;;;11.12;65.92
58245;BME280;44550;43.864;25.986;2023-04-28T21:26:29;101386.94;;;11.32;64.59
58245;BME280;44550;43.864;25.986;2023-04-28T21:30:34;101417.16;;;10.58;66.08
58245;BME280;44550;43.864;25.986;2023-04-28T21:34:55;101426.78;;;10.14;67.53
58245;BME280;44550;43.864;25.986;2023-04-28T21:39:00;101431.19;;;9.74;68.31
58245;BME280;44550;43.864;25.986;2023-04-28T21:43:01;101422.72;;;9.45;70.38
58245;BME280;44550;43.864;25.986;2023-04-28T21:47:03;101431.19;;;9.34;72.09
58245;BME280;44550;43.864;25.986;2023-04-28T21:51:18;101431.34;;;9.40;72.00
58245;BME280;44550;43.864;25.986;2023-04-28T21:55:24;101427.94;;;9.45;71.96
58245;BME280;44550;43.864;25.986;2023-04-28T21:59:38;101429.47;;;9.36;72.45
58245;BME280;44550;43.864;25.986;2023-04-28T22:03:46;101431.44;;;9.45;73.29
58245;BME280;44550;43.864;25.986;2023-04-28T22:07:55;101425.34;;;9.45;73.86
58245;BME280;44550;43.864;25.986;2023-04-28T22:12:01;101415.78;;;9.07;74.10
58245;BME280;44550;43.864;25.986;2023-04-28T22:16:09;101417.31;;;8.99;74.93
58245;BME280;44550;43.864;25.986;2023-04-28T22:20:16;101427.50;;;8.90;75.10
58245;BME280;44550;43.864;25.986;2023-04-28T22:24:30;101416.66;;;9.08;74.54
58245;BME280;44550;43.864;25.986;2023-04-28T22:29:00;101414.50;;;9.28;73.21